createdAt,value
2023-05-22T00:00:52.878Z,7.30
2023-05-22T00:03:24.681Z,7.70
2023-05-22T00:05:53.314Z,7.70
2023-05-22T00:08:21.751Z,8.10
2023-05-22T00:10:50.098Z,7.93
2023-05-22T00:13:18.539Z,7.83
2023-05-22T00:15:46.834Z,7.63
2023-05-22T00:18:15.235Z,7.17
2023-05-22T00:20:46.610Z,7.47
2023-05-22T00:23:18.240Z,7.50
2023-05-22T00:25:46.633Z,7.63
2023-05-22T00:28:15.087Z,7.87
2023-05-22T00:30:43.462Z,9.17
2023-05-22T00:33:12.464Z,8.40
2023-05-22T00:35:40.838Z,8.87
2023-05-22T00:38:10.641Z,8.77
2023-05-22T00:40:41.960Z,8.03
2023-05-22T00:43:10.947Z,8.70
2023-05-22T00:45:39.340Z,8.33
2023-05-22T00:48:09.667Z,8.83
2023-05-22T00:50:41.160Z,8.60
2023-05-22T00:53:11.992Z,8.47
2023-05-22T00:55:40.629Z,9.00
2023-05-22T00:58:12.315Z,8.90
2023-05-22T01:00:42.208Z,8.73
2023-05-22T01:03:24.873Z,8.53
2023-05-22T01:05:54.676Z,8.73
2023-05-22T01:08:24.427Z,9.07
2023-05-22T01:11:01.362Z,9.07
2023-05-22T01:13:41.167Z,8.90
2023-05-22T01:16:20.111Z,8.50
2023-05-22T01:19:07.638Z,9.20
2023-05-22T01:21:46.344Z,9.00
2023-05-22T01:24:54.562Z,9.10
2023-05-22T01:27:55.382Z,9.70
2023-05-22T01:30:49.319Z,8.77
2023-05-22T01:33:19.661Z,8.93
2023-05-22T01:35:54.022Z,9.53
2023-05-22T01:38:22.906Z,9.13
2023-05-22T01:40:51.926Z,8.73
2023-05-22T01:43:22.693Z,8.70
2023-05-22T01:45:52.580Z,9.60
2023-05-22T01:48:20.973Z,10.00
2023-05-22T01:50:52.709Z,9.43
2023-05-22T01:53:31.669Z,9.77
2023-05-22T01:56:07.848Z,9.77
2023-05-22T01:58:44.433Z,8.97
2023-05-22T02:01:16.223Z,9.47
2023-05-22T02:03:47.709Z,9.67
2023-05-22T02:06:16.880Z,8.97
2023-05-22T02:08:49.154Z,8.67
2023-05-22T02:11:18.709Z,9.23
2023-05-22T02:13:47.043Z,8.87
2023-05-22T02:16:16.887Z,9.40
2023-05-22T02:18:45.571Z,9.80
2023-05-22T02:21:13.974Z,9.27
2023-05-22T02:23:42.438Z,8.90
2023-05-22T02:26:10.870Z,9.03
2023-05-22T02:28:39.186Z,8.67
2023-05-22T02:31:10.763Z,8.57
2023-05-22T02:33:40.544Z,9.23
2023-05-22T02:36:11.117Z,7.53
2023-05-22T02:38:39.532Z,9.23
2023-05-22T02:41:09.244Z,9.13
2023-05-22T02:43:37.664Z,8.77
2023-05-22T02:46:06.172Z,9.43
2023-05-22T02:48:34.536Z,9.37
2023-05-22T02:51:04.239Z,8.33
2023-05-22T02:53:33.645Z,8.93
2023-05-22T02:56:01.981Z,8.80
2023-05-22T02:58:30.316Z,9.87
2023-05-22T03:00:58.744Z,9.00
2023-05-22T03:03:27.173Z,9.43
2023-05-22T03:05:58.557Z,9.43
2023-05-22T03:08:29.213Z,9.97
2023-05-22T03:10:58.100Z,10.20
2023-05-22T03:13:26.520Z,9.87
2023-05-22T03:15:54.918Z,9.27
2023-05-22T03:18:25.288Z,9.57
2023-05-22T03:20:57.793Z,8.50
2023-05-22T03:23:27.476Z,9.40
2023-05-22T03:25:55.805Z,9.87
2023-05-22T03:28:24.102Z,9.37
2023-05-22T03:30:55.256Z,10.17
2023-05-22T03:33:23.649Z,9.37
2023-05-22T03:35:52.050Z,9.27
2023-05-22T03:38:20.330Z,9.70
2023-05-22T03:40:50.004Z,9.57
2023-05-22T03:43:18.287Z,8.60
2023-05-22T03:45:49.511Z,9.60
2023-05-22T03:48:17.808Z,9.20
2023-05-22T03:50:46.082Z,9.40
2023-05-22T03:53:17.411Z,9.63
2023-05-22T03:55:45.701Z,9.30
2023-05-22T03:58:15.397Z,10.10
2023-05-22T04:00:43.755Z,9.50
2023-05-22T04:03:13.159Z,10.03
2023-05-22T04:05:41.684Z,9.40
2023-05-22T04:08:10.001Z,10.73
2023-05-22T04:10:39.105Z,9.60
2023-05-22T04:13:07.640Z,10.07
2023-05-22T04:15:41.705Z,9.73
2023-05-22T04:18:10.460Z,9.90
2023-05-22T04:20:39.001Z,10.07
2023-05-22T04:23:08.383Z,9.70
2023-05-22T04:25:37.009Z,9.10
2023-05-22T04:28:05.422Z,9.83
2023-05-22T04:30:34.526Z,9.60
2023-05-22T04:33:05.442Z,9.57
2023-05-22T04:35:34.315Z,9.90
2023-05-22T04:38:03.676Z,9.33
2023-05-22T04:40:33.531Z,9.97
2023-05-22T04:43:03.492Z,9.47
2023-05-22T04:45:42.307Z,10.70
2023-05-22T04:48:12.638Z,9.90
2023-05-22T04:50:41.338Z,10.07
2023-05-22T04:53:09.940Z,10.03
2023-05-22T04:55:38.284Z,10.43
2023-05-22T04:58:06.932Z,10.70
2023-05-22T05:00:35.425Z,10.27
2023-05-22T05:03:04.002Z,10.13
2023-05-22T05:05:33.783Z,10.37
2023-05-22T05:08:02.504Z,10.03
2023-05-22T05:10:30.940Z,10.30
2023-05-22T05:12:59.219Z,9.90
2023-05-22T05:15:28.147Z,10.17
2023-05-22T05:17:56.835Z,9.47
2023-05-22T05:20:27.533Z,9.50
2023-05-22T05:22:57.452Z,10.43
2023-05-22T05:25:25.923Z,11.20
2023-05-22T05:27:54.245Z,10.33
2023-05-22T05:30:22.562Z,11.17
2023-05-22T05:32:50.880Z,9.87
2023-05-22T05:35:19.215Z,10.83
2023-05-22T05:37:47.539Z,10.77
2023-05-22T05:40:17.323Z,9.63
2023-05-22T05:42:45.648Z,10.23
2023-05-22T05:45:15.994Z,9.47
2023-05-22T05:47:44.472Z,9.60
2023-05-22T05:50:18.236Z,9.40
2023-05-22T05:52:46.505Z,9.37
2023-05-22T05:55:16.788Z,8.83
2023-05-22T05:57:44.935Z,9.60
2023-05-22T06:00:14.773Z,9.03
2023-05-22T06:02:43.704Z,9.30
2023-05-22T06:05:12.357Z,8.37
2023-05-22T06:07:41.898Z,7.70
2023-05-22T06:10:13.050Z,9.03
2023-05-22T06:12:45.744Z,8.43
2023-05-22T06:15:14.193Z,8.27
2023-05-22T06:17:42.977Z,8.40
2023-05-22T06:20:14.263Z,9.13
2023-05-22T06:22:42.589Z,8.30
2023-05-22T06:25:11.505Z,8.17
2023-05-22T06:27:39.938Z,8.47
2023-05-22T06:30:14.786Z,8.60
2023-05-22T06:32:43.386Z,8.30
2023-05-22T06:35:12.421Z,8.37
2023-05-22T06:37:43.017Z,8.67
2023-05-22T06:40:12.258Z,7.93
2023-05-22T06:42:40.739Z,8.30
2023-05-22T06:45:11.801Z,7.77
2023-05-22T06:47:40.170Z,7.37
2023-05-22T06:50:10.589Z,7.93
2023-05-22T06:52:39.079Z,7.33
2023-05-22T06:55:08.715Z,7.80
2023-05-22T06:57:37.495Z,8.00
2023-05-22T07:00:12.672Z,7.80
2023-05-22T07:02:42.515Z,7.60
2023-05-22T07:05:11.131Z,7.43
2023-05-22T07:07:39.544Z,7.83
2023-05-22T07:10:09.534Z,7.20
2023-05-22T07:12:37.906Z,7.47
2023-05-22T07:15:10.533Z,7.67
2023-05-22T07:17:41.830Z,7.37
2023-05-22T07:20:15.550Z,7.43
2023-05-22T07:22:43.885Z,6.90
2023-05-22T07:25:12.173Z,7.03
2023-05-22T07:27:40.930Z,6.90
2023-05-22T07:30:10.872Z,6.67
2023-05-22T07:32:39.262Z,6.20
2023-05-22T07:35:10.624Z,6.83
2023-05-22T07:37:41.320Z,6.37
2023-05-22T07:40:11.233Z,7.07
2023-05-22T07:42:39.547Z,6.70
2023-05-22T07:45:09.644Z,6.73
2023-05-22T07:47:40.859Z,7.03
2023-05-22T07:50:10.549Z,7.07
2023-05-22T07:52:40.242Z,6.63
2023-05-22T07:55:10.167Z,6.73
2023-05-22T07:57:39.599Z,7.00
2023-05-22T08:00:14.170Z,7.37
2023-05-22T08:02:42.719Z,6.40
2023-05-22T08:05:11.549Z,6.20
2023-05-22T08:07:41.558Z,7.00
2023-05-22T08:10:16.198Z,6.97
2023-05-22T08:12:44.733Z,6.10
2023-05-22T08:15:13.538Z,6.23
2023-05-22T08:17:41.928Z,7.23
2023-05-22T08:20:13.162Z,6.57
2023-05-22T08:22:43.031Z,6.20
2023-05-22T08:25:11.670Z,6.50
2023-05-22T08:27:40.026Z,6.33
2023-05-22T08:30:09.829Z,7.00
2023-05-22T08:32:38.195Z,6.33
2023-05-22T08:35:07.804Z,5.90
2023-05-22T08:37:37.175Z,6.13
2023-05-22T08:40:12.406Z,6.70
2023-05-22T08:42:40.935Z,6.40
2023-05-22T08:45:10.271Z,6.43
2023-05-22T08:47:39.174Z,7.03
2023-05-22T08:50:09.685Z,6.72
2023-05-22T08:52:51.668Z,6.75
2023-05-22T08:55:21.817Z,6.25
2023-05-22T08:57:51.617Z,6.38
2023-05-22T09:00:23.278Z,6.45
2023-05-22T09:02:52.405Z,7.13
2023-05-22T09:05:21.384Z,7.18
2023-05-22T09:07:50.019Z,6.72
2023-05-22T09:10:18.341Z,6.43
2023-05-22T09:13:05.704Z,7.05
2023-05-22T09:15:34.600Z,6.80
2023-05-22T09:18:04.958Z,6.85
2023-05-22T09:20:37.376Z,6.63
2023-05-22T09:23:14.488Z,7.13
2023-05-22T09:25:44.100Z,6.88
2023-05-22T09:28:14.463Z,6.88
2023-05-22T09:30:43.538Z,6.57
2023-05-22T09:33:17.036Z,6.82
2023-05-22T09:35:47.227Z,6.68
2023-05-22T09:38:16.109Z,7.55
2023-05-22T09:40:44.817Z,7.03
2023-05-22T09:43:19.310Z,6.45
2023-05-22T09:45:47.646Z,6.63
2023-05-22T09:48:21.528Z,6.88
2023-05-22T09:50:50.014Z,7.40
2023-05-22T09:53:20.885Z,6.55
2023-05-22T09:55:51.285Z,7.25
2023-05-22T09:58:21.485Z,6.90
2023-05-22T10:00:51.135Z,7.07
2023-05-22T10:03:24.297Z,6.78
2023-05-22T10:05:55.845Z,6.38
2023-05-22T10:08:29.647Z,7.30
2023-05-22T10:10:58.680Z,7.28
2023-05-22T10:13:29.258Z,6.93
2023-05-22T10:15:58.535Z,6.75
2023-05-22T10:18:28.070Z,6.53
2023-05-22T10:20:57.702Z,7.78
2023-05-22T10:23:27.593Z,6.43
2023-05-22T10:25:57.194Z,7.28
2023-05-22T10:28:31.917Z,7.10
2023-05-22T10:31:07.834Z,6.60
2023-05-22T10:33:44.493Z,6.78
2023-05-22T10:36:24.574Z,7.07
2023-05-22T10:39:08.104Z,7.45
2023-05-22T10:41:36.876Z,6.90
2023-05-22T10:44:06.571Z,6.70
2023-05-22T10:46:35.258Z,6.22
2023-05-22T10:49:03.915Z,6.85
2023-05-22T10:51:35.381Z,6.78
2023-05-22T10:54:05.493Z,6.57
2023-05-22T10:56:38.214Z,6.38
2023-05-22T10:59:08.631Z,7.15
2023-05-22T11:01:38.607Z,6.63
2023-05-22T11:04:19.173Z,7.18
2023-05-22T11:06:50.621Z,6.78
2023-05-22T11:09:30.178Z,7.30
2023-05-22T11:12:17.581Z,8.00
2023-05-22T11:14:53.405Z,7.07
2023-05-22T11:17:27.771Z,7.55
2023-05-22T11:20:05.453Z,6.78
2023-05-22T11:22:36.753Z,7.57
2023-05-22T11:25:09.102Z,7.05
2023-05-22T11:27:39.215Z,7.18
2023-05-22T11:30:10.864Z,6.20
2023-05-22T11:32:40.660Z,8.05
2023-05-22T11:35:10.116Z,7.65
2023-05-22T11:37:42.448Z,7.43
2023-05-22T11:40:12.165Z,7.63
2023-05-22T11:42:40.626Z,7.53
2023-05-22T11:45:11.955Z,7.70
2023-05-22T11:47:40.827Z,6.88
2023-05-22T11:50:12.662Z,7.80
2023-05-22T11:52:46.134Z,7.78
2023-05-22T11:55:14.653Z,8.05
2023-05-22T11:57:43.364Z,8.13
2023-05-22T12:00:14.739Z,7.88
2023-05-22T12:02:47.636Z,7.43
2023-05-22T12:05:17.052Z,8.10
2023-05-22T12:07:45.741Z,7.63
2023-05-22T12:10:16.587Z,7.45
2023-05-22T12:12:45.654Z,8.35
2023-05-22T12:15:16.003Z,7.45
2023-05-22T12:17:44.763Z,7.68
2023-05-22T12:20:14.754Z,7.72
2023-05-22T12:22:44.192Z,7.43
2023-05-22T12:25:17.838Z,7.85
2023-05-22T12:27:46.850Z,7.10
2023-05-22T12:30:18.226Z,7.43
2023-05-22T12:32:50.135Z,7.63
2023-05-22T12:35:19.872Z,8.55
2023-05-22T12:37:52.438Z,8.15
2023-05-22T12:40:21.176Z,8.60
2023-05-22T12:42:50.630Z,7.85
2023-05-22T12:45:20.495Z,7.57
2023-05-22T12:47:48.838Z,8.02
2023-05-22T12:50:17.313Z,8.52
2023-05-22T12:52:45.645Z,8.05
2023-05-22T12:55:13.990Z,8.43
2023-05-22T12:57:42.440Z,8.20
2023-05-22T13:00:12.461Z,7.57
2023-05-22T13:02:42.437Z,8.65
2023-05-22T13:05:11.157Z,9.27
2023-05-22T13:07:39.661Z,8.82
2023-05-22T13:10:09.624Z,8.63
2023-05-22T13:12:37.963Z,8.20
2023-05-22T13:15:07.828Z,8.60
2023-05-22T13:17:36.512Z,8.43
2023-05-22T13:20:08.050Z,8.38
2023-05-22T13:22:36.388Z,7.80
2023-05-22T13:25:05.473Z,7.90
2023-05-22T13:27:34.087Z,7.35
2023-05-22T13:30:02.546Z,7.15
2023-05-22T13:32:31.038Z,7.43
2023-05-22T13:35:02.238Z,8.23
2023-05-22T13:37:31.986Z,7.95
2023-05-22T13:40:00.633Z,8.57
2023-05-22T13:42:29.174Z,7.55
2023-05-22T13:44:57.727Z,7.22
2023-05-22T13:47:26.282Z,7.90
2023-05-22T13:49:54.715Z,8.68
2023-05-22T13:52:23.404Z,8.55
2023-05-22T13:54:53.117Z,7.78
2023-05-22T13:57:21.502Z,7.93
2023-05-22T13:59:49.944Z,8.00
2023-05-22T14:02:20.506Z,7.75
2023-05-22T14:04:49.752Z,7.82
2023-05-22T14:07:18.184Z,8.02
2023-05-22T14:09:49.341Z,7.40
2023-05-22T14:12:19.079Z,7.60
2023-05-22T14:14:47.424Z,7.60
2023-05-22T14:17:15.786Z,7.63
2023-05-22T14:19:44.130Z,7.38
2023-05-22T14:22:12.455Z,7.75
2023-05-22T14:24:40.811Z,7.95
2023-05-22T14:27:10.063Z,6.97
2023-05-22T14:29:41.550Z,7.63
2023-05-22T14:32:09.881Z,7.65
2023-05-22T14:34:38.246Z,7.40
2023-05-22T14:37:06.823Z,7.95
2023-05-22T14:39:38.093Z,7.35
2023-05-22T14:42:06.873Z,7.93
2023-05-22T14:44:35.200Z,7.72
2023-05-22T14:47:05.087Z,7.47
2023-05-22T14:49:33.382Z,7.43
2023-05-22T14:52:01.750Z,6.95
2023-05-22T14:54:30.084Z,8.23
2023-05-22T14:56:58.440Z,7.20
2023-05-22T14:59:26.855Z,6.35
2023-05-22T15:01:55.261Z,7.20
2023-05-22T15:04:25.011Z,6.57
2023-05-22T15:06:53.355Z,6.00
2023-05-22T15:09:21.659Z,6.68
2023-05-22T15:11:51.103Z,6.57
2023-05-22T15:14:21.458Z,6.32
2023-05-22T15:16:50.231Z,6.38
2023-05-22T15:19:18.862Z,6.53
2023-05-22T15:21:48.596Z,6.10
2023-05-22T15:24:17.383Z,5.65
2023-05-22T15:26:45.749Z,5.85
2023-05-22T15:29:14.208Z,6.07
2023-05-22T15:31:42.582Z,12.23
2023-05-22T15:34:11.010Z,8.65
2023-05-22T15:36:40.310Z,7.13
2023-05-22T15:39:10.006Z,6.07
2023-05-22T15:41:38.363Z,5.45
2023-05-22T15:44:09.336Z,5.32
2023-05-22T15:46:38.796Z,5.70
2023-05-22T15:49:07.193Z,5.97
2023-05-22T15:51:35.708Z,5.50
2023-05-22T15:54:04.179Z,5.60
2023-05-22T15:56:33.911Z,5.50
2023-05-22T15:59:07.776Z,5.57
2023-05-22T16:01:36.367Z,5.80
2023-05-22T16:04:04.713Z,5.07
2023-05-22T16:06:33.217Z,5.68
2023-05-22T16:09:01.541Z,5.22
2023-05-22T16:11:30.178Z,5.20
2023-05-22T16:13:59.867Z,5.57
2023-05-22T16:16:28.287Z,6.25
2023-05-22T16:18:56.734Z,5.82
2023-05-22T16:21:25.054Z,6.05
2023-05-22T16:23:53.583Z,5.90
2023-05-22T16:26:22.749Z,5.82
2023-05-22T16:28:51.094Z,6.10
2023-05-22T16:31:20.908Z,6.60
2023-05-22T16:33:49.611Z,5.82
2023-05-22T16:36:18.204Z,6.07
2023-05-22T16:38:46.490Z,6.35
2023-05-22T16:41:14.996Z,6.65
2023-05-22T16:43:43.315Z,6.10
2023-05-22T16:46:11.724Z,5.65
2023-05-22T16:48:41.592Z,5.60
2023-05-22T16:51:10.494Z,6.25
2023-05-22T16:53:39.043Z,6.70
2023-05-22T16:56:07.990Z,6.40
2023-05-22T16:58:36.305Z,6.35
2023-05-22T17:01:06.420Z,6.70
2023-05-22T17:03:34.907Z,6.90
2023-05-22T17:06:05.932Z,6.80
2023-05-22T17:08:34.320Z,6.18
2023-05-22T17:11:02.756Z,6.45
2023-05-22T17:13:31.121Z,6.03
2023-05-22T17:15:59.602Z,6.30
2023-05-22T17:18:28.089Z,6.75
2023-05-22T17:21:00.271Z,6.25
2023-05-22T17:23:30.394Z,6.40
2023-05-22T17:25:58.974Z,6.53
2023-05-22T17:28:27.311Z,6.55
2023-05-22T17:30:58.471Z,6.20
2023-05-22T17:33:26.950Z,6.40
2023-05-22T17:35:55.353Z,7.93
2023-05-22T17:38:23.707Z,7.88
2023-05-22T17:40:53.758Z,8.77
2023-05-22T17:43:22.109Z,6.70
2023-05-22T17:45:50.916Z,6.97
2023-05-22T17:48:23.622Z,7.40
2023-05-22T17:50:52.570Z,7.27
2023-05-22T17:53:21.744Z,6.15
2023-05-22T17:55:53.368Z,6.77
2023-05-22T17:58:22.244Z,6.60
2023-05-22T18:00:50.948Z,6.73
2023-05-22T18:03:23.215Z,6.50
2023-05-22T18:05:52.307Z,6.27
2023-05-22T18:08:21.593Z,6.37
2023-05-22T18:10:50.520Z,6.03
2023-05-22T18:13:20.306Z,6.20
2023-05-22T18:15:50.277Z,6.33
2023-05-22T18:18:18.882Z,6.07
2023-05-22T18:20:47.675Z,6.60
2023-05-22T18:23:16.194Z,6.07
2023-05-22T18:25:44.588Z,5.77
2023-05-22T18:28:13.056Z,7.27
2023-05-22T18:30:44.684Z,6.90
2023-05-22T18:33:13.175Z,6.60
2023-05-22T18:35:41.686Z,7.13
2023-05-22T18:38:10.099Z,6.03
2023-05-22T18:40:39.071Z,6.53
2023-05-22T18:43:07.755Z,6.20
2023-05-22T18:45:36.232Z,7.03
2023-05-22T18:48:06.216Z,7.20
2023-05-22T18:50:34.822Z,6.90
2023-05-22T18:53:03.314Z,7.20
2023-05-22T18:55:31.747Z,6.70
2023-05-22T18:58:00.200Z,7.00
2023-05-22T19:00:29.037Z,7.40
2023-05-22T19:02:57.673Z,8.03
2023-05-22T19:05:27.558Z,8.40
2023-05-22T19:07:56.094Z,8.20
2023-05-22T19:10:24.641Z,8.17
2023-05-22T19:12:53.081Z,7.93
2023-05-22T19:15:21.627Z,7.07
2023-05-22T19:17:50.049Z,7.50
2023-05-22T19:20:18.709Z,7.73
2023-05-22T19:22:48.471Z,7.97
2023-05-22T19:25:16.876Z,7.93
2023-05-22T19:27:45.249Z,7.67
2023-05-22T19:30:16.381Z,8.33
2023-05-22T19:32:45.581Z,8.13
2023-05-22T19:35:14.030Z,8.13
2023-05-22T19:37:42.451Z,7.90
2023-05-22T19:40:12.777Z,8.37
2023-05-22T19:42:42.750Z,7.60
2023-05-22T19:45:11.730Z,7.93
2023-05-22T19:47:40.145Z,7.77
2023-05-22T19:50:12.739Z,8.10
2023-05-22T19:52:41.234Z,7.63
2023-05-22T19:55:11.881Z,7.30
2023-05-22T19:57:40.305Z,8.23
2023-05-22T20:00:11.083Z,7.37
2023-05-22T20:02:39.875Z,7.77
2023-05-22T20:05:12.899Z,8.30
2023-05-22T20:07:43.102Z,7.93
2023-05-22T20:10:13.281Z,8.10
2023-05-22T20:12:42.086Z,7.60
2023-05-22T20:15:14.889Z,8.23
2023-05-22T20:17:47.605Z,7.77
2023-05-22T20:20:16.152Z,7.97
2023-05-22T20:22:44.512Z,8.23
2023-05-22T20:25:14.573Z,8.20
2023-05-22T20:27:43.023Z,8.30
2023-05-22T20:30:12.830Z,8.80
2023-05-22T20:32:42.677Z,8.90
2023-05-22T20:35:13.046Z,8.27
2023-05-22T20:37:42.129Z,8.10
2023-05-22T20:40:13.053Z,8.17
2023-05-22T20:42:43.611Z,8.30
2023-05-22T20:45:14.591Z,8.37
2023-05-22T20:47:43.863Z,8.43
2023-05-22T20:50:12.823Z,8.40
2023-05-22T20:52:41.222Z,8.63
2023-05-22T20:55:10.664Z,8.73
2023-05-22T20:57:39.349Z,8.70
2023-05-22T21:00:13.895Z,8.30
2023-05-22T21:02:42.487Z,8.43
2023-05-22T21:05:13.655Z,8.37
2023-05-22T21:07:42.147Z,7.67
2023-05-22T21:10:11.908Z,8.33
2023-05-22T21:12:40.276Z,8.20
2023-05-22T21:15:12.041Z,8.57
2023-05-22T21:17:41.014Z,9.13
2023-05-22T21:20:10.422Z,8.33
2023-05-22T21:22:38.759Z,8.47
2023-05-22T21:25:08.872Z,8.67
2023-05-22T21:27:37.264Z,8.67
2023-05-22T21:30:06.495Z,8.40
2023-05-22T21:32:36.318Z,8.20
2023-05-22T21:35:04.922Z,8.63
2023-05-22T21:37:33.352Z,8.47
2023-05-22T21:40:02.165Z,9.13
2023-05-22T21:42:41.890Z,8.57
2023-05-22T21:45:14.808Z,8.83
2023-05-22T21:47:44.706Z,8.23
2023-05-22T21:50:13.335Z,8.77
2023-05-22T21:52:41.680Z,8.63
2023-05-22T21:55:10.912Z,8.23
2023-05-22T21:57:39.769Z,8.40
2023-05-22T22:00:09.876Z,8.43
2023-05-22T22:02:38.327Z,8.20
2023-05-22T22:05:11.649Z,8.13
2023-05-22T22:07:40.093Z,8.10
2023-05-22T22:10:09.521Z,8.77
2023-05-22T22:12:37.912Z,8.70
2023-05-22T22:15:07.377Z,8.47
2023-05-22T22:17:35.766Z,9.47
2023-05-22T22:20:04.382Z,8.27
2023-05-22T22:22:34.173Z,8.63
2023-05-22T22:25:02.551Z,8.93
2023-05-22T22:27:30.939Z,9.23
2023-05-22T22:29:59.265Z,9.37
2023-05-22T22:32:27.630Z,8.63
2023-05-22T22:34:55.998Z,8.83
2023-05-22T22:37:24.347Z,9.10
2023-05-22T22:39:54.108Z,9.70
2023-05-22T22:42:22.441Z,8.90
2023-05-22T22:44:50.893Z,9.53
2023-05-22T22:47:19.722Z,9.20
2023-05-22T22:49:48.235Z,9.50
2023-05-22T22:52:16.630Z,8.83
2023-05-22T22:54:45.163Z,10.33
2023-05-22T22:57:15.052Z,9.57
2023-05-22T22:59:43.431Z,9.23
2023-05-22T23:02:11.812Z,9.70
2023-05-22T23:04:40.197Z,9.70
2023-05-22T23:07:09.486Z,9.43
2023-05-22T23:09:39.973Z,9.43
2023-05-22T23:12:09.823Z,10.13
2023-05-22T23:14:39.617Z,9.27
2023-05-22T23:17:08.001Z,9.07
2023-05-22T23:19:36.395Z,9.30
2023-05-22T23:22:04.777Z,9.27
2023-05-22T23:24:33.198Z,10.20
2023-05-22T23:27:02.195Z,9.50
2023-05-22T23:29:30.536Z,9.50
2023-05-22T23:32:00.527Z,9.33
2023-05-22T23:34:29.106Z,9.77
2023-05-22T23:36:57.467Z,10.13
2023-05-22T23:39:26.796Z,9.23
2023-05-22T23:41:55.217Z,10.30
2023-05-22T23:44:26.552Z,9.53
2023-05-22T23:46:55.230Z,10.00
2023-05-22T23:49:25.174Z,10.60
2023-05-22T23:51:53.511Z,10.13
2023-05-22T23:54:21.978Z,10.77
2023-05-22T23:56:50.574Z,10.00
2023-05-22T23:59:19.077Z,9.60
